sensor_id;sensor_type;location;lat;lon;timestamp;pressure;altitude;pressure_sealevel;temperature;humidity
69982;BME280;57319;56.274;43.980;2023-04-07T00:02:24;100723.78;;;0.81;51.31
69982;BME280;57319;56.274;43.980;2023-04-07T00:04:51;100726.78;;;0.73;51.47
69982;BME280;57319;56.274;43.980;2023-04-07T00:07:17;100727.56;;;0.70;51.04
69982;BME280;57319;56.274;43.980;2023-04-07T00:09:42;100727.44;;;0.68;51.45
69982;BME280;57319;56.274;43.980;2023-04-07T00:12:08;100730.94;;;0.71;51.23
69982;BME280;57319;56.274;43.980;2023-04-07T00:14:33;100730.09;;;0.70;51.37
69982;BME280;57319;56.274;43.980;2023-04-07T00:16:59;100730.75;;;0.66;51.55
69982;BME280;57319;56.274;43.980;2023-04-07T00:19:25;100724.06;;;0.68;51.72
69982;BME280;57319;56.274;43.980;2023-04-07T00:21:50;100730.22;;;0.73;51.29
69982;BME280;57319;56.274;43.980;2023-04-07T00:24:16;100729.13;;;0.68;51.32
69982;BME280;57319;56.274;43.980;2023-04-07T00:26:41;100734.25;;;0.70;51.60
69982;BME280;57319;56.274;43.980;2023-04-07T00:29:07;100732.06;;;0.77;51.07
69982;BME280;57319;56.274;43.980;2023-04-07T00:31:33;100738.88;;;0.78;50.82
69982;BME280;57319;56.274;43.980;2023-04-07T00:33:58;100735.41;;;0.76;51.53
69982;BME280;57319;56.274;43.980;2023-04-07T00:36:24;100735.28;;;0.73;51.28
69982;BME280;57319;56.274;43.980;2023-04-07T00:38:50;100742.00;;;0.73;51.40
69982;BME280;57319;56.274;43.980;2023-04-07T00:41:15;100745.28;;;0.70;51.60
69982;BME280;57319;56.274;43.980;2023-04-07T00:43:41;100746.16;;;0.71;51.20
69982;BME280;57319;56.274;43.980;2023-04-07T00:46:06;100745.69;;;0.60;51.58
69982;BME280;57319;56.274;43.980;2023-04-07T00:48:32;100746.75;;;0.65;51.42
69982;BME280;57319;56.274;43.980;2023-04-07T00:50:58;100749.16;;;0.62;51.38
69982;BME280;57319;56.274;43.980;2023-04-07T00:53:24;100750.81;;;0.61;51.73
69982;BME280;57319;56.274;43.980;2023-04-07T00:55:49;100746.34;;;0.56;51.70
69982;BME280;57319;56.274;43.980;2023-04-07T00:58:15;100743.56;;;0.49;51.72
69982;BME280;57319;56.274;43.980;2023-04-07T01:00:57;100745.88;;;0.45;51.91
69982;BME280;57319;56.274;43.980;2023-04-07T01:03:29;100747.53;;;0.44;51.77
69982;BME280;57319;56.274;43.980;2023-04-07T01:06:00;100752.38;;;0.40;52.03
69982;BME280;57319;56.274;43.980;2023-04-07T01:09:06;100757.63;;;0.43;52.12
69982;BME280;57319;56.274;43.980;2023-04-07T01:11:59;100753.34;;;0.42;52.10
69982;BME280;57319;56.274;43.980;2023-04-07T01:14:33;100760.09;;;0.41;52.14
69982;BME280;57319;56.274;43.980;2023-04-07T01:17:06;100755.94;;;0.43;51.86
69982;BME280;57319;56.274;43.980;2023-04-07T01:19:40;100756.66;;;0.41;52.22
69982;BME280;57319;56.274;43.980;2023-04-07T01:22:14;100754.59;;;0.32;52.24
69982;BME280;57319;56.274;43.980;2023-04-07T01:27:41;100762.84;;;0.28;52.62
69982;BME280;57319;56.274;43.980;2023-04-07T01:30:11;100763.38;;;0.21;52.40
69982;BME280;57319;56.274;43.980;2023-04-07T01:32:38;100760.63;;;0.16;52.56
69982;BME280;57319;56.274;43.980;2023-04-07T01:35:08;100762.00;;;0.09;52.52
69982;BME280;57319;56.274;43.980;2023-04-07T01:37:35;100768.44;;;0.03;53.00
69982;BME280;57319;56.274;43.980;2023-04-07T01:40:03;100765.13;;;0.04;52.78
69982;BME280;57319;56.274;43.980;2023-04-07T01:42:31;100769.34;;;0.03;52.40
69982;BME280;57319;56.274;43.980;2023-04-07T01:44:58;100766.94;;;0.06;52.51
69982;BME280;57319;56.274;43.980;2023-04-07T01:47:26;100763.63;;;0.07;52.68
69982;BME280;57319;56.274;43.980;2023-04-07T01:49:57;100774.47;;;0.05;52.74
69982;BME280;57319;56.274;43.980;2023-04-07T01:52:25;100771.06;;;0.04;52.79
69982;BME280;57319;56.274;43.980;2023-04-07T01:54:52;100775.78;;;-0.04;52.67
69982;BME280;57319;56.274;43.980;2023-04-07T01:57:18;100777.84;;;-0.13;52.91
69982;BME280;57319;56.274;43.980;2023-04-07T01:59:44;100782.78;;;-0.16;52.71
69982;BME280;57319;56.274;43.980;2023-04-07T02:02:09;100782.84;;;-0.14;52.67
69982;BME280;57319;56.274;43.980;2023-04-07T02:04:57;100785.44;;;-0.13;52.70
69982;BME280;57319;56.274;43.980;2023-04-07T02:07:41;100782.72;;;-0.18;53.22
69982;BME280;57319;56.274;43.980;2023-04-07T02:10:12;100786.47;;;-0.27;53.46
69982;BME280;57319;56.274;43.980;2023-04-07T02:12:40;100781.09;;;-0.33;53.41
69982;BME280;57319;56.274;43.980;2023-04-07T02:15:08;100783.78;;;-0.30;53.68
69982;BME280;57319;56.274;43.980;2023-04-07T02:17:40;100791.94;;;-0.36;53.35
69982;BME280;57319;56.274;43.980;2023-04-07T02:20:08;100802.13;;;-0.35;53.71
69982;BME280;57319;56.274;43.980;2023-04-07T02:22:37;100795.38;;;-0.36;53.54
69982;BME280;57319;56.274;43.980;2023-04-07T02:27:51;100804.06;;;-0.47;53.45
69982;BME280;57319;56.274;43.980;2023-04-07T02:30:17;100806.47;;;-0.50;53.59
69982;BME280;57319;56.274;43.980;2023-04-07T02:32:43;100799.59;;;-0.53;54.07
69982;BME280;57319;56.274;43.980;2023-04-07T02:35:09;100805.59;;;-0.50;53.85
69982;BME280;57319;56.274;43.980;2023-04-07T02:37:35;100808.91;;;-0.52;53.72
69982;BME280;57319;56.274;43.980;2023-04-07T02:40:01;100812.41;;;-0.49;53.71
69982;BME280;57319;56.274;43.980;2023-04-07T02:42:28;100817.75;;;-0.43;53.72
69982;BME280;57319;56.274;43.980;2023-04-07T02:44:53;100822.09;;;-0.41;53.71
69982;BME280;57319;56.274;43.980;2023-04-07T02:47:19;100822.94;;;-0.40;53.94
69982;BME280;57319;56.274;43.980;2023-04-07T02:49:44;100824.47;;;-0.44;53.88
69982;BME280;57319;56.274;43.980;2023-04-07T02:52:11;100819.09;;;-0.50;54.08
69982;BME280;57319;56.274;43.980;2023-04-07T02:54:37;100824.88;;;-0.53;54.28
69982;BME280;57319;56.274;43.980;2023-04-07T02:57:02;100830.13;;;-0.49;53.98
69982;BME280;57319;56.274;43.980;2023-04-07T02:59:28;100834.84;;;-0.56;54.21
69982;BME280;57319;56.274;43.980;2023-04-07T03:01:53;100835.00;;;-0.53;54.13
69982;BME280;57319;56.274;43.980;2023-04-07T03:04:20;100833.03;;;-0.58;54.09
69982;BME280;57319;56.274;43.980;2023-04-07T03:06:46;100830.75;;;-0.54;54.30
69982;BME280;57319;56.274;43.980;2023-04-07T03:09:11;100828.44;;;-0.49;54.22
69982;BME280;57319;56.274;43.980;2023-04-07T03:11:37;100833.72;;;-0.44;54.00
69982;BME280;57319;56.274;43.980;2023-04-07T03:14:03;100842.25;;;-0.42;53.70
69982;BME280;57319;56.274;43.980;2023-04-07T03:16:29;100835.47;;;-0.43;53.71
69982;BME280;57319;56.274;43.980;2023-04-07T03:18:54;100839.88;;;-0.39;53.60
69982;BME280;57319;56.274;43.980;2023-04-07T03:21:20;100839.44;;;-0.30;53.14
69982;BME280;57319;56.274;43.980;2023-04-07T03:23:45;100833.75;;;-0.26;53.16
69982;BME280;57319;56.274;43.980;2023-04-07T03:26:11;100843.50;;;-0.34;53.16
69982;BME280;57319;56.274;43.980;2023-04-07T03:28:37;100841.19;;;-0.29;53.36
69982;BME280;57319;56.274;43.980;2023-04-07T03:31:02;100845.47;;;-0.28;53.10
69982;BME280;57319;56.274;43.980;2023-04-07T03:33:28;100849.81;;;-0.26;52.88
69982;BME280;57319;56.274;43.980;2023-04-07T03:35:53;100857.84;;;-0.16;52.83
69982;BME280;57319;56.274;43.980;2023-04-07T03:38:19;100856.25;;;-0.14;52.71
69982;BME280;57319;56.274;43.980;2023-04-07T03:40:45;100845.34;;;-0.13;52.19
69982;BME280;57319;56.274;43.980;2023-04-07T03:43:11;100858.13;;;-0.10;52.28
69982;BME280;57319;56.274;43.980;2023-04-07T03:45:40;100855.53;;;-0.12;52.18
69982;BME280;57319;56.274;43.980;2023-04-07T03:48:06;100853.13;;;-0.09;51.79
69982;BME280;57319;56.274;43.980;2023-04-07T03:50:37;100855.16;;;-0.02;51.76
69982;BME280;57319;56.274;43.980;2023-04-07T03:53:03;100856.19;;;0.02;51.33
69982;BME280;57319;56.274;43.980;2023-04-07T03:55:29;100859.75;;;0.06;51.31
69982;BME280;57319;56.274;43.980;2023-04-07T03:57:55;100863.78;;;0.02;51.19
69982;BME280;57319;56.274;43.980;2023-04-07T04:00:20;100855.91;;;-0.04;51.04
69982;BME280;57319;56.274;43.980;2023-04-07T04:02:46;100868.34;;;0.09;50.89
69982;BME280;57319;56.274;43.980;2023-04-07T04:05:12;100861.03;;;0.15;51.10
69982;BME280;57319;56.274;43.980;2023-04-07T04:07:37;100865.16;;;0.13;50.94
69982;BME280;57319;56.274;43.980;2023-04-07T04:10:03;100861.03;;;0.15;51.23
69982;BME280;57319;56.274;43.980;2023-04-07T04:12:29;100871.38;;;0.20;50.82
69982;BME280;57319;56.274;43.980;2023-04-07T04:14:55;100879.56;;;0.32;50.69
69982;BME280;57319;56.274;43.980;2023-04-07T04:17:20;100867.78;;;0.33;49.78
69982;BME280;57319;56.274;43.980;2023-04-07T04:19:46;100878.31;;;0.42;50.21
69982;BME280;57319;56.274;43.980;2023-04-07T04:22:12;100881.16;;;0.48;49.49
69982;BME280;57319;56.274;43.980;2023-04-07T04:24:37;100882.00;;;0.49;49.65
69982;BME280;57319;56.274;43.980;2023-04-07T04:27:03;100889.06;;;0.56;49.54
69982;BME280;57319;56.274;43.980;2023-04-07T04:29:28;100893.34;;;0.57;49.36
69982;BME280;57319;56.274;43.980;2023-04-07T04:31:54;100903.56;;;0.59;49.00
69982;BME280;57319;56.274;43.980;2023-04-07T04:34:20;100901.25;;;0.63;49.23
69982;BME280;57319;56.274;43.980;2023-04-07T04:36:45;100908.41;;;0.72;49.08
69982;BME280;57319;56.274;43.980;2023-04-07T04:39:13;100905.81;;;0.71;48.82
69982;BME280;57319;56.274;43.980;2023-04-07T04:41:39;100909.34;;;0.74;48.74
69982;BME280;57319;56.274;43.980;2023-04-07T04:44:04;100907.75;;;0.76;48.85
69982;BME280;57319;56.274;43.980;2023-04-07T04:46:30;100907.56;;;0.91;48.97
69982;BME280;57319;56.274;43.980;2023-04-07T04:48:56;100910.47;;;0.99;48.74
69982;BME280;57319;56.274;43.980;2023-04-07T04:51:22;100907.41;;;1.06;48.03
69982;BME280;57319;56.274;43.980;2023-04-07T04:53:48;100913.66;;;1.14;48.02
69982;BME280;57319;56.274;43.980;2023-04-07T04:56:13;100905.41;;;1.18;48.17
69982;BME280;57319;56.274;43.980;2023-04-07T04:58:40;100918.19;;;1.22;47.06
69982;BME280;57319;56.274;43.980;2023-04-07T05:01:11;100917.53;;;1.26;47.11
69982;BME280;57319;56.274;43.980;2023-04-07T05:03:36;100918.69;;;1.32;47.12
69982;BME280;57319;56.274;43.980;2023-04-07T05:06:02;100924.66;;;1.34;46.99
69982;BME280;57319;56.274;43.980;2023-04-07T05:08:28;100923.94;;;1.37;46.96
69982;BME280;57319;56.274;43.980;2023-04-07T05:10:53;100926.41;;;1.35;46.33
69982;BME280;57319;56.274;43.980;2023-04-07T05:13:20;100920.34;;;1.32;45.95
69982;BME280;57319;56.274;43.980;2023-04-07T05:15:46;100919.94;;;1.42;46.41
69982;BME280;57319;56.274;43.980;2023-04-07T05:18:12;100921.13;;;1.50;46.08
69982;BME280;57319;56.274;43.980;2023-04-07T05:20:38;100918.09;;;1.59;45.82
69982;BME280;57319;56.274;43.980;2023-04-07T05:23:03;100926.34;;;1.73;45.50
69982;BME280;57319;56.274;43.980;2023-04-07T05:25:29;100927.53;;;1.81;45.55
69982;BME280;57319;56.274;43.980;2023-04-07T05:27:57;100927.94;;;1.92;45.54
69982;BME280;57319;56.274;43.980;2023-04-07T05:30:24;100927.69;;;1.86;44.87
69982;BME280;57319;56.274;43.980;2023-04-07T05:32:50;100929.56;;;1.90;44.91
69982;BME280;57319;56.274;43.980;2023-04-07T05:35:16;100928.94;;;1.96;44.77
69982;BME280;57319;56.274;43.980;2023-04-07T05:37:42;100934.19;;;2.00;44.10
69982;BME280;57319;56.274;43.980;2023-04-07T05:40:08;100948.22;;;2.12;44.36
69982;BME280;57319;56.274;43.980;2023-04-07T05:42:33;100944.38;;;2.22;44.81
69982;BME280;57319;56.274;43.980;2023-04-07T05:44:59;100940.47;;;2.30;44.58
69982;BME280;57319;56.274;43.980;2023-04-07T05:47:25;100941.59;;;2.36;44.08
69982;BME280;57319;56.274;43.980;2023-04-07T05:49:50;100942.03;;;2.47;43.40
69982;BME280;57319;56.274;43.980;2023-04-07T05:52:16;100935.78;;;2.62;43.52
69982;BME280;57319;56.274;43.980;2023-04-07T05:54:42;100939.47;;;2.70;42.95
69982;BME280;57319;56.274;43.980;2023-04-07T05:57:07;100932.97;;;2.77;42.49
69982;BME280;57319;56.274;43.980;2023-04-07T05:59:34;100941.75;;;2.85;42.50
69982;BME280;57319;56.274;43.980;2023-04-07T06:02:02;100942.78;;;2.90;42.58
69982;BME280;57319;56.274;43.980;2023-04-07T06:04:27;100939.78;;;3.00;42.13
69982;BME280;57319;56.274;43.980;2023-04-07T06:06:53;100938.47;;;3.12;41.56
69982;BME280;57319;56.274;43.980;2023-04-07T06:09:23;100945.59;;;3.20;41.66
69982;BME280;57319;56.274;43.980;2023-04-07T06:11:48;100950.16;;;3.29;41.31
69982;BME280;57319;56.274;43.980;2023-04-07T06:14:16;100944.59;;;3.39;41.07
69982;BME280;57319;56.274;43.980;2023-04-07T06:16:42;100945.03;;;3.52;40.26
69982;BME280;57319;56.274;43.980;2023-04-07T06:19:08;100949.59;;;3.62;39.55
69982;BME280;57319;56.274;43.980;2023-04-07T06:21:34;100950.75;;;3.70;39.78
69982;BME280;57319;56.274;43.980;2023-04-07T06:24:00;100950.91;;;3.75;39.41
69982;BME280;57319;56.274;43.980;2023-04-07T06:26:26;100949.38;;;3.80;39.47
69982;BME280;57319;56.274;43.980;2023-04-07T06:28:52;100951.91;;;3.80;39.36
69982;BME280;57319;56.274;43.980;2023-04-07T06:31:18;100952.50;;;3.97;39.47
69982;BME280;57319;56.274;43.980;2023-04-07T06:33:44;100951.22;;;4.10;38.75
69982;BME280;57319;56.274;43.980;2023-04-07T06:36:10;100955.59;;;4.14;38.77
69982;BME280;57319;56.274;43.980;2023-04-07T06:38:37;100957.25;;;4.12;37.82
69982;BME280;57319;56.274;43.980;2023-04-07T06:41:04;100960.38;;;4.05;37.81
69982;BME280;57319;56.274;43.980;2023-04-07T06:43:30;100951.22;;;4.10;37.74
69982;BME280;57319;56.274;43.980;2023-04-07T06:45:56;100946.94;;;4.09;37.02
69982;BME280;57319;56.274;43.980;2023-04-07T06:48:22;100959.88;;;4.15;36.90
69982;BME280;57319;56.274;43.980;2023-04-07T06:50:48;100955.94;;;4.25;36.51
69982;BME280;57319;56.274;43.980;2023-04-07T06:53:14;100961.22;;;4.31;35.92
69982;BME280;57319;56.274;43.980;2023-04-07T06:55:40;100959.78;;;4.39;35.37
69982;BME280;57319;56.274;43.980;2023-04-07T06:58:06;100962.69;;;4.50;36.05
69982;BME280;57319;56.274;43.980;2023-04-07T07:00:32;100961.81;;;4.50;35.02
69982;BME280;57319;56.274;43.980;2023-04-07T07:02:58;100958.66;;;4.57;35.06
69982;BME280;57319;56.274;43.980;2023-04-07T07:05:24;100961.28;;;4.60;34.59
69982;BME280;57319;56.274;43.980;2023-04-07T07:07:50;100959.56;;;4.59;34.31
69982;BME280;57319;56.274;43.980;2023-04-07T07:10:16;100959.66;;;4.62;34.31
69982;BME280;57319;56.274;43.980;2023-04-07T07:12:42;100965.94;;;4.73;34.36
69982;BME280;57319;56.274;43.980;2023-04-07T07:15:08;100956.75;;;4.79;33.79
69982;BME280;57319;56.274;43.980;2023-04-07T07:17:34;100968.00;;;4.85;33.10
69982;BME280;57319;56.274;43.980;2023-04-07T07:20:00;100959.84;;;4.97;33.55
69982;BME280;57319;56.274;43.980;2023-04-07T07:22:26;100959.91;;;4.99;33.84
69982;BME280;57319;56.274;43.980;2023-04-07T07:24:52;100961.66;;;5.01;33.76
69982;BME280;57319;56.274;43.980;2023-04-07T07:27:18;100951.59;;;5.06;33.01
69982;BME280;57319;56.274;43.980;2023-04-07T07:29:43;100960.47;;;5.19;33.10
69982;BME280;57319;56.274;43.980;2023-04-07T07:32:09;100956.59;;;5.32;32.87
69982;BME280;57319;56.274;43.980;2023-04-07T07:34:35;100950.88;;;5.40;32.27
69982;BME280;57319;56.274;43.980;2023-04-07T07:37:00;100948.94;;;5.32;31.96
69982;BME280;57319;56.274;43.980;2023-04-07T07:39:27;100945.66;;;5.36;31.74
69982;BME280;57319;56.274;43.980;2023-04-07T07:41:54;100950.59;;;5.31;31.90
69982;BME280;57319;56.274;43.980;2023-04-07T07:44:20;100946.50;;;5.36;31.54
69982;BME280;57319;56.274;43.980;2023-04-07T07:46:47;100949.31;;;5.46;32.08
69982;BME280;57319;56.274;43.980;2023-04-07T07:49:13;100957.06;;;5.49;31.66
69982;BME280;57319;56.274;43.980;2023-04-07T07:51:39;100958.09;;;5.55;31.77
69982;BME280;57319;56.274;43.980;2023-04-07T07:54:04;100952.25;;;5.59;31.98
69982;BME280;57319;56.274;43.980;2023-04-07T07:56:30;100958.53;;;5.72;31.08
69982;BME280;57319;56.274;43.980;2023-04-07T07:58:57;100952.81;;;5.81;31.35
69982;BME280;57319;56.274;43.980;2023-04-07T08:01:23;100960.50;;;5.83;30.75
69982;BME280;57319;56.274;43.980;2023-04-07T08:03:49;100961.44;;;5.86;31.01
69982;BME280;57319;56.274;43.980;2023-04-07T08:06:15;100954.13;;;5.99;31.32
69982;BME280;57319;56.274;43.980;2023-04-07T08:08:41;100960.38;;;6.10;30.15
69982;BME280;57319;56.274;43.980;2023-04-07T08:11:07;100956.72;;;6.00;29.93
69982;BME280;57319;56.274;43.980;2023-04-07T08:13:33;100959.16;;;5.97;29.86
69982;BME280;57319;56.274;43.980;2023-04-07T08:15:59;100962.53;;;5.96;29.83
69982;BME280;57319;56.274;43.980;2023-04-07T08:18:27;100957.31;;;5.91;30.36
69982;BME280;57319;56.274;43.980;2023-04-07T08:20:53;100955.91;;;6.03;29.98
69982;BME280;57319;56.274;43.980;2023-04-07T08:23:18;100957.97;;;6.16;29.38
69982;BME280;57319;56.274;43.980;2023-04-07T08:25:44;100954.72;;;6.23;28.59
69982;BME280;57319;56.274;43.980;2023-04-07T08:28:10;100953.34;;;6.36;28.87
69982;BME280;57319;56.274;43.980;2023-04-07T08:30:36;100950.09;;;6.43;28.92
69982;BME280;57319;56.274;43.980;2023-04-07T08:33:04;100955.41;;;6.51;28.28
69982;BME280;57319;56.274;43.980;2023-04-07T08:35:30;100944.44;;;6.57;28.43
69982;BME280;57319;56.274;43.980;2023-04-07T08:37:55;100956.50;;;6.62;28.08
69982;BME280;57319;56.274;43.980;2023-04-07T08:40:21;100938.72;;;6.69;27.81
69982;BME280;57319;56.274;43.980;2023-04-07T08:42:47;100954.78;;;6.63;28.04
69982;BME280;57319;56.274;43.980;2023-04-07T08:45:16;100948.94;;;6.69;27.65
69982;BME280;57319;56.274;43.980;2023-04-07T08:47:42;100954.91;;;6.68;28.30
69982;BME280;57319;56.274;43.980;2023-04-07T08:50:09;100955.81;;;6.70;27.21
69982;BME280;57319;56.274;43.980;2023-04-07T08:55:04;100951.94;;;6.87;26.52
69982;BME280;57319;56.274;43.980;2023-04-07T08:57:31;100949.56;;;6.96;26.93
69982;BME280;57319;56.274;43.980;2023-04-07T08:59:59;100938.69;;;7.07;27.17
69982;BME280;57319;56.274;43.980;2023-04-07T09:02:37;100959.22;;;7.10;26.47
69982;BME280;57319;56.274;43.980;2023-04-07T09:05:05;100955.91;;;7.16;25.65
69982;BME280;57319;56.274;43.980;2023-04-07T09:07:32;100951.66;;;7.15;24.88
69982;BME280;57319;56.274;43.980;2023-04-07T09:09:59;100944.88;;;7.18;25.62
69982;BME280;57319;56.274;43.980;2023-04-07T09:12:29;100957.03;;;7.27;24.75
69982;BME280;57319;56.274;43.980;2023-04-07T09:14:56;100949.38;;;7.30;23.92
69982;BME280;57319;56.274;43.980;2023-04-07T09:17:24;100946.75;;;7.25;23.33
69982;BME280;57319;56.274;43.980;2023-04-07T09:19:52;100938.34;;;7.33;23.80
69982;BME280;57319;56.274;43.980;2023-04-07T09:22:35;100938.53;;;7.42;24.19
69982;BME280;57319;56.274;43.980;2023-04-07T09:25:21;100943.97;;;7.59;25.03
69982;BME280;57319;56.274;43.980;2023-04-07T09:28:00;100943.41;;;7.75;24.27
69982;BME280;57319;56.274;43.980;2023-04-07T09:30:28;100940.72;;;7.69;24.34
69982;BME280;57319;56.274;43.980;2023-04-07T09:32:55;100946.13;;;7.83;24.87
69982;BME280;57319;56.274;43.980;2023-04-07T09:35:21;100942.03;;;7.94;24.37
69982;BME280;57319;56.274;43.980;2023-04-07T09:38:05;100935.22;;;7.96;23.39
69982;BME280;57319;56.274;43.980;2023-04-07T09:40:31;100944.69;;;8.02;22.93
69982;BME280;57319;56.274;43.980;2023-04-07T09:42:57;100937.97;;;8.07;23.48
69982;BME280;57319;56.274;43.980;2023-04-07T09:45:27;100938.16;;;8.20;23.76
69982;BME280;57319;56.274;43.980;2023-04-07T09:47:54;100931.50;;;8.31;23.97
69982;BME280;57319;56.274;43.980;2023-04-07T09:50:38;100935.91;;;8.38;23.69
69982;BME280;57319;56.274;43.980;2023-04-07T09:53:05;100943.25;;;8.17;23.48
69982;BME280;57319;56.274;43.980;2023-04-07T09:55:32;100939.88;;;8.21;23.48
69982;BME280;57319;56.274;43.980;2023-04-07T09:57:58;100942.53;;;8.27;23.04
69982;BME280;57319;56.274;43.980;2023-04-07T10:00:25;100936.69;;;8.34;22.96
69982;BME280;57319;56.274;43.980;2023-04-07T10:02:51;100935.09;;;8.41;22.86
69982;BME280;57319;56.274;43.980;2023-04-07T10:05:17;100945.50;;;8.52;23.19
69982;BME280;57319;56.274;43.980;2023-04-07T10:07:45;100945.66;;;8.62;22.87
69982;BME280;57319;56.274;43.980;2023-04-07T10:10:12;100939.84;;;8.74;22.53
69982;BME280;57319;56.274;43.980;2023-04-07T10:12:38;100934.63;;;8.68;21.96
69982;BME280;57319;56.274;43.980;2023-04-07T10:15:05;100932.91;;;8.65;22.88
69982;BME280;57319;56.274;43.980;2023-04-07T10:17:32;100930.53;;;8.81;23.12
69982;BME280;57319;56.274;43.980;2023-04-07T10:20:00;100927.22;;;8.90;22.21
69982;BME280;57319;56.274;43.980;2023-04-07T10:22:27;100921.31;;;8.97;22.33
69982;BME280;57319;56.274;43.980;2023-04-07T10:27:32;100933.28;;;8.93;23.65
69982;BME280;57319;56.274;43.980;2023-04-07T10:29:59;100929.88;;;8.94;23.25
69982;BME280;57319;56.274;43.980;2023-04-07T10:32:25;100935.69;;;8.82;24.20
69982;BME280;57319;56.274;43.980;2023-04-07T10:37:21;100932.50;;;9.02;24.09
69982;BME280;57319;56.274;43.980;2023-04-07T10:39:48;100933.53;;;9.15;23.96
69982;BME280;57319;56.274;43.980;2023-04-07T10:47:30;100928.06;;;9.65;23.55
69982;BME280;57319;56.274;43.980;2023-04-07T10:50:15;100927.56;;;10.05;23.13
69982;BME280;57319;56.274;43.980;2023-04-07T10:52:46;100921.72;;;10.23;23.96
69982;BME280;57319;56.274;43.980;2023-04-07T10:55:47;100924.91;;;11.39;22.86
69982;BME280;57319;56.274;43.980;2023-04-07T10:58:19;100933.63;;;12.00;23.34
69982;BME280;57319;56.274;43.980;2023-04-07T11:03:34;100927.25;;;13.32;21.81
69982;BME280;57319;56.274;43.980;2023-04-07T11:06:12;100937.69;;;13.07;22.63
69982;BME280;57319;56.274;43.980;2023-04-07T11:08:46;100941.09;;;13.22;22.29
69982;BME280;57319;56.274;43.980;2023-04-07T11:11:18;100923.13;;;12.91;22.90
69982;BME280;57319;56.274;43.980;2023-04-07T11:13:48;100927.53;;;12.63;23.25
69982;BME280;57319;56.274;43.980;2023-04-07T11:16:17;100928.41;;;11.86;24.05
69982;BME280;57319;56.274;43.980;2023-04-07T11:18:44;100925.88;;;12.34;23.55
69982;BME280;57319;56.274;43.980;2023-04-07T11:21:10;100929.31;;;12.02;24.10
69982;BME280;57319;56.274;43.980;2023-04-07T11:23:41;100931.84;;;11.80;24.44
69982;BME280;57319;56.274;43.980;2023-04-07T11:26:09;100925.00;;;12.10;24.92
69982;BME280;57319;56.274;43.980;2023-04-07T11:28:45;100924.13;;;11.86;25.30
69982;BME280;57319;56.274;43.980;2023-04-07T11:31:11;100924.13;;;12.47;24.23
69982;BME280;57319;56.274;43.980;2023-04-07T11:33:38;100919.44;;;13.45;23.50
69982;BME280;57319;56.274;43.980;2023-04-07T11:36:05;100914.81;;;13.90;22.64
69982;BME280;57319;56.274;43.980;2023-04-07T11:38:36;100909.16;;;13.40;23.45
69982;BME280;57319;56.274;43.980;2023-04-07T11:41:11;100910.97;;;15.14;22.04
69982;BME280;57319;56.274;43.980;2023-04-07T11:43:37;100909.25;;;16.75;20.46
69982;BME280;57319;56.274;43.980;2023-04-07T11:46:17;100911.44;;;16.98;19.73
69982;BME280;57319;56.274;43.980;2023-04-07T11:48:44;100907.88;;;16.55;20.07
69982;BME280;57319;56.274;43.980;2023-04-07T11:51:20;100905.28;;;16.55;19.84
69982;BME280;57319;56.274;43.980;2023-04-07T11:53:54;100904.91;;;17.19;19.46
69982;BME280;57319;56.274;43.980;2023-04-07T11:56:20;100909.69;;;17.38;19.61
69982;BME280;57319;56.274;43.980;2023-04-07T11:58:50;100898.47;;;17.72;19.53
69982;BME280;57319;56.274;43.980;2023-04-07T12:01:16;100897.06;;;17.96;19.49
69982;BME280;57319;56.274;43.980;2023-04-07T12:06:33;100905.03;;;18.87;18.69
69982;BME280;57319;56.274;43.980;2023-04-07T12:09:00;100905.78;;;19.50;18.14
69982;BME280;57319;56.274;43.980;2023-04-07T12:11:27;100895.47;;;20.51;17.33
69982;BME280;57319;56.274;43.980;2023-04-07T12:13:53;100894.75;;;20.95;16.93
69982;BME280;57319;56.274;43.980;2023-04-07T12:16:22;100896.03;;;21.07;16.33
69982;BME280;57319;56.274;43.980;2023-04-07T12:18:47;100903.34;;;19.99;17.54
69982;BME280;57319;56.274;43.980;2023-04-07T12:21:14;100893.66;;;20.03;17.20
69982;BME280;57319;56.274;43.980;2023-04-07T12:23:40;100901.75;;;20.21;17.30
69982;BME280;57319;56.274;43.980;2023-04-07T12:26:06;100902.78;;;20.42;17.06
69982;BME280;57319;56.274;43.980;2023-04-07T12:28:32;100895.50;;;20.25;17.29
69982;BME280;57319;56.274;43.980;2023-04-07T12:30:58;100896.28;;;20.28;17.35
69982;BME280;57319;56.274;43.980;2023-04-07T12:33:23;100893.09;;;19.66;17.81
69982;BME280;57319;56.274;43.980;2023-04-07T12:35:49;100897.34;;;17.07;19.75
69982;BME280;57319;56.274;43.980;2023-04-07T12:38:16;100889.97;;;16.40;20.26
69982;BME280;57319;56.274;43.980;2023-04-07T12:40:42;100891.25;;;17.47;18.93
69982;BME280;57319;56.274;43.980;2023-04-07T12:43:08;100895.84;;;17.73;19.40
69982;BME280;57319;56.274;43.980;2023-04-07T12:45:33;100894.38;;;18.32;18.47
69982;BME280;57319;56.274;43.980;2023-04-07T12:47:59;100896.47;;;18.52;18.65
69982;BME280;57319;56.274;43.980;2023-04-07T12:50:25;100898.84;;;18.60;18.22
69982;BME280;57319;56.274;43.980;2023-04-07T12:52:51;100903.94;;;18.64;18.56
69982;BME280;57319;56.274;43.980;2023-04-07T12:55:17;100894.84;;;18.15;18.83
69982;BME280;57319;56.274;43.980;2023-04-07T12:57:43;100902.63;;;18.50;18.76
69982;BME280;57319;56.274;43.980;2023-04-07T13:00:12;100894.75;;;18.51;18.61
69982;BME280;57319;56.274;43.980;2023-04-07T13:02:48;100889.50;;;18.20;18.72
69982;BME280;57319;56.274;43.980;2023-04-07T13:05:14;100890.56;;;18.45;18.17
69982;BME280;57319;56.274;43.980;2023-04-07T13:07:39;100894.06;;;17.39;19.22
69982;BME280;57319;56.274;43.980;2023-04-07T13:10:05;100890.66;;;17.36;19.18
69982;BME280;57319;56.274;43.980;2023-04-07T13:12:35;100893.22;;;17.37;19.12
69982;BME280;57319;56.274;43.980;2023-04-07T13:15:01;100884.19;;;18.56;18.29